Terminal Aerodrome Forecast
Issued by NWS Wilmington, NC

Home | Current Version | Previous Version | Text Only | Print | Product List | Glossary On
Versions: 1 2 3 4 5 6 7 8 9 10 11 12 13 14 15 16 17 18 19 20 21 22 23 24 25 26
000
FTUS42 KILM 201120
TAFLBT
TAF
KLBT 201120Z 2012/2112 VRB04KT 1 1/2SM BR SCT009
     FM201300 VRB04KT 2SM BR SCT015
     FM201500 04005KT P6SM BKN070
     FM210900 VRB03KT 1SM BR BKN010
     AMD NOT SKED=

USA.gov is the U.S. government's official web portal to all federal, state and local government web resources and services.